Time;durP1;ratioP1;P1;durP2;ratioP2;P2;SDS_P1;SDS_P2;PMS_P1;PMS_P2;Temp;Humidity;BMP_temperature;BMP_pressure;BME280_temperature;BME280_humidity;BME280_pressure;Samples;Min_cycle;Max_cycle;Signal;HPM_P1;HPM_P2
2023/05/21 00:02:03;;;;;;;1999.90;999.90;;;;;;;10.10;100.00;101724.47;5066888;28;20040;-77
2023/05/21 00:04:30;;;;;;;1999.90;999.90;;;;;;;10.09;100.00;101729.91;5046936;28;20020;-77
2023/05/21 00:06:57;;;;;;;1999.90;999.90;;;;;;;10.07;100.00;101743.41;5086144;28;20044;-74
2023/05/21 00:09:23;;;;;;;1999.90;999.90;;;;;;;10.04;100.00;101751.66;5044726;28;20215;-74
2023/05/21 00:11:48;;;;;;;1999.90;999.90;;;;;;;10.05;100.00;101764.06;5076132;28;20344;-78
2023/05/21 00:14:14;;;;;;;1999.90;999.90;;;;;;;10.07;100.00;101756.75;5069222;28;20032;-78
2023/05/21 00:16:39;;;;;;;1999.90;999.90;;;;;;;10.06;100.00;101757.72;5069131;28;20079;-74
2023/05/21 00:19:05;;;;;;;1999.90;999.90;;;;;;;10.06;100.00;101771.06;5066193;28;20024;-74
2023/05/21 00:21:30;;;;;;;1156.30;414.77;;;;;;;10.04;100.00;101769.50;5077545;28;20289;-73
2023/05/21 00:23:56;;;;;;;1999.90;361.53;;;;;;;10.03;100.00;101768.66;5066329;28;20278;-73
2023/05/21 00:26:23;;;;;;;1999.90;999.90;;;;;;;10.06;100.00;101765.72;5066852;28;20081;-73
2023/05/21 00:28:51;;;;;;;1999.90;999.90;;;;;;;10.05;100.00;101752.53;5052951;28;20036;-73
2023/05/21 00:31:17;;;;;;;1999.90;999.90;;;;;;;10.03;100.00;101757.16;5080667;28;20032;-75
2023/05/21 00:33:43;;;;;;;1999.90;999.90;;;;;;;10.02;100.00;101761.66;5085242;28;20099;-75
2023/05/21 00:36:13;;;;;;;1999.90;999.90;;;;;;;9.92;100.00;101755.41;5065117;28;20115;-77
2023/05/21 00:38:45;;;;;;;1999.90;999.90;;;;;;;9.92;100.00;101772.25;5064707;28;20482;-75
2023/05/21 00:41:11;;;;;;;1999.90;999.90;;;;;;;9.89;100.00;101766.38;5048451;28;20040;-76
2023/05/21 00:43:40;;;;;;;1999.90;999.90;;;;;;;9.91;100.00;101777.75;5060607;28;20020;-73
2023/05/21 00:46:07;;;;;;;1999.90;999.90;;;;;;;9.89;100.00;101774.38;5077566;28;20047;-73
2023/05/21 00:48:33;;;;;;;1999.90;999.90;;;;;;;9.89;100.00;101771.69;5066662;28;20025;-76
2023/05/21 00:50:59;;;;;;;;;;;;;;;9.90;100.00;101778.72;5066529;28;20126;-78
2023/05/21 00:53:26;;;;;;;1999.90;822.70;;;;;;;9.88;100.00;101786.88;5049386;28;19920;-73
2023/05/21 00:55:51;;;;;;;1999.90;999.90;;;;;;;9.85;100.00;101780.94;5051697;28;20130;-73
2023/05/21 00:58:17;;;;;;;1999.90;999.90;;;;;;;9.85;100.00;101776.44;5063167;28;20146;-76
2023/05/21 01:00:43;;;;;;;1999.90;999.90;;;;;;;9.81;100.00;101779.50;5068218;28;20093;-73
2023/05/21 01:03:09;;;;;;;1322.75;340.35;;;;;;;9.79;100.00;101779.66;5057387;28;20020;-78
2023/05/21 01:05:35;;;;;;;1999.90;999.90;;;;;;;9.79;100.00;101784.16;5051902;28;20114;-73
2023/05/21 01:08:01;;;;;;;1999.90;999.90;;;;;;;9.70;100.00;101778.63;5051597;28;20475;-73
2023/05/21 01:10:28;;;;;;;1999.90;999.90;;;;;;;9.69;100.00;101787.59;5066029;28;20028;-73
2023/05/21 01:12:56;;;;;;;;;;;;;;;9.66;100.00;101785.19;5063548;28;20020;-78
2023/05/21 01:15:21;;;;;;;1999.90;999.90;;;;;;;9.78;100.00;101787.78;5085014;28;20197;-76
2023/05/21 01:17:48;;;;;;;1999.90;999.90;;;;;;;9.77;100.00;101781.59;5063606;28;20038;-72
2023/05/21 01:20:18;;;;;;;1999.90;999.90;;;;;;;9.78;100.00;101777.13;5050886;28;20768;-77
2023/05/21 01:22:54;;;;;;;1999.90;999.90;;;;;;;9.80;100.00;101775.16;5064671;28;20406;-75
2023/05/21 01:25:22;;;;;;;1999.90;999.90;;;;;;;9.80;100.00;101769.81;5048591;28;20364;-76
2023/05/21 01:27:47;;;;;;;1819.88;781.45;;;;;;;9.79;100.00;101763.66;5058763;28;20090;-73
2023/05/21 01:30:14;;;;;;;1764.93;591.38;;;;;;;9.79;100.00;101762.81;5050930;28;20036;-76
2023/05/21 01:32:58;;;;;;;1999.90;999.90;;;;;;;9.80;100.00;101760.00;5067375;28;20039;-75
2023/05/21 01:35:37;;;;;;;1999.90;999.90;;;;;;;9.83;100.00;101756.22;5063503;28;20618;-75
2023/05/21 01:38:10;;;;;;;1999.90;999.90;;;;;;;9.84;100.00;101750.75;5067199;28;20043;-73
2023/05/21 01:40:59;;;;;;;1999.90;999.90;;;;;;;9.83;100.00;101738.41;5062344;28;20046;-73
2023/05/21 01:43:28;;;;;;;1923.95;782.13;;;;;;;9.76;100.00;101737.22;5048217;28;20272;-74
2023/05/21 01:45:55;;;;;;;1999.90;802.58;;;;;;;9.73;100.00;101729.50;5078751;28;20016;-73
2023/05/21 01:48:24;;;;;;;1999.90;669.03;;;;;;;9.72;100.00;101738.50;5057703;28;20029;-73
2023/05/21 01:50:54;;;;;;;1999.90;795.47;;;;;;;9.67;100.00;101738.91;5067230;28;20591;-73
2023/05/21 01:53:20;;;;;;;1999.90;254.43;;;;;;;9.77;100.00;101743.44;5079232;28;20032;-73
2023/05/21 01:55:45;;;;;;;1999.90;428.08;;;;;;;9.69;100.00;101733.41;5076452;28;20028;-74
2023/05/21 01:58:11;;;;;;;1999.90;999.90;;;;;;;9.64;100.00;101731.13;5066542;28;20573;-77
2023/05/21 02:00:38;;;;;;;1999.90;683.92;;;;;;;9.65;100.00;101743.50;5084033;28;20394;-76
2023/05/21 02:03:04;;;;;;;1999.90;348.52;;;;;;;9.60;100.00;101743.06;5061353;28;20032;-73
2023/05/21 02:05:30;;;;;;;1999.90;312.27;;;;;;;9.64;100.00;101740.97;5048518;28;20047;-74
2023/05/21 02:07:56;;;;;;;1999.90;341.15;;;;;;;9.59;100.00;101737.84;5083605;28;20414;-73
2023/05/21 02:10:21;;;;;;;1999.90;370.80;;;;;;;9.57;100.00;101737.97;5066541;28;20409;-75
2023/05/21 02:12:46;;;;;;;1977.78;606.17;;;;;;;9.57;100.00;101734.47;5062023;28;20039;-76
2023/05/21 02:15:16;;;;;;;1999.90;556.20;;;;;;;9.59;100.00;101737.84;5079328;28;20078;-76
2023/05/21 02:17:43;;;;;;;1999.90;328.42;;;;;;;9.60;100.00;101743.06;5065649;28;20074;-74
2023/05/21 02:20:11;;;;;;;1999.90;204.25;;;;;;;9.64;100.00;101741.81;5059120;28;20163;-77
2023/05/21 02:22:43;;;;;;;1999.90;404.38;;;;;;;9.66;100.00;101739.84;5083619;28;20028;-73
2023/05/21 02:25:10;;;;;;;1999.90;391.65;;;;;;;9.69;100.00;101736.94;5062303;28;20030;-76
2023/05/21 02:27:36;;;;;;;1999.90;382.77;;;;;;;9.70;100.00;101730.63;5049817;28;20134;-76
2023/05/21 02:30:04;;;;;;;1999.90;434.90;;;;;;;9.72;100.00;101727.84;5050071;28;20509;-76
2023/05/21 02:32:33;;;;;;;1999.90;526.35;;;;;;;9.72;100.00;101719.84;5078760;28;20103;-73
2023/05/21 02:35:00;;;;;;;1999.90;466.30;;;;;;;9.66;100.00;101707.84;5066736;28;20047;-73
2023/05/21 02:37:26;;;;;;;1999.90;644.45;;;;;;;9.66;100.00;101710.53;5066033;28;20028;-75
2023/05/21 02:39:55;;;;;;;1999.90;547.60;;;;;;;9.66;100.00;101715.84;5079659;28;20039;-73
2023/05/21 02:42:24;;;;;;;1999.90;587.00;;;;;;;9.66;100.00;101709.69;5048931;28;20131;-78
2023/05/21 02:44:50;;;;;;;1999.90;408.10;;;;;;;9.64;100.00;101708.97;5050055;28;20064;-73
2023/05/21 02:47:17;;;;;;;1999.90;530.00;;;;;;;9.63;100.00;101710.78;5069313;28;20046;-74
2023/05/21 02:49:43;;;;;;;1999.90;623.17;;;;;;;9.66;100.00;101707.84;5072706;28;20473;-78
2023/05/21 02:52:08;;;;;;;1999.90;608.47;;;;;;;9.66;100.00;101710.53;5069566;28;20300;-73
2023/05/21 02:54:33;;;;;;;1999.90;660.77;;;;;;;9.68;100.00;101702.41;5056518;28;20502;-73
2023/05/21 02:56:59;;;;;;;1999.90;458.43;;;;;;;9.68;100.00;101710.41;5068668;28;20065;-74
2023/05/21 02:59:24;;;;;;;1999.90;642.73;;;;;;;9.62;100.00;101703.78;5055866;28;20047;-73
2023/05/21 03:01:49;;;;;;;1999.90;386.23;;;;;;;9.61;100.00;101702.09;5060947;28;20123;-73
2023/05/21 03:04:20;;;;;;;1999.90;590.90;;;;;;;9.61;100.00;101699.41;5072389;28;20485;-79
2023/05/21 03:06:53;;;;;;;1999.90;690.42;;;;;;;9.62;100.00;101695.78;5070026;28;20648;-75
2023/05/21 03:09:22;;;;;;;1999.90;577.72;;;;;;;9.60;100.00;101695.06;5052033;28;20048;-73
2023/05/21 03:11:50;;;;;;;1999.90;425.83;;;;;;;9.64;100.00;101696.47;5053119;28;20044;-76
2023/05/21 03:14:15;;;;;;;1999.90;672.95;;;;;;;9.66;100.00;101704.34;5067662;28;20052;-77
2023/05/21 03:16:42;;;;;;;1999.90;459.50;;;;;;;9.68;100.00;101697.91;5068553;28;20503;-73
2023/05/21 03:19:08;;;;;;;1999.90;524.40;;;;;;;9.69;100.00;101693.41;5052224;28;20123;-75
2023/05/21 03:21:35;;;;;;;1999.90;398.23;;;;;;;9.67;100.00;101696.22;5068706;28;20016;-73
2023/05/21 03:24:00;;;;;;;;;;;;;;;9.77;100.00;101698.09;5056566;28;20035;-78
2023/05/21 03:26:28;;;;;;;1999.90;799.75;;;;;;;9.76;100.00;101697.22;5085155;28;19908;-73
2023/05/21 03:28:55;;;;;;;1999.90;296.10;;;;;;;9.76;100.00;101686.56;5054645;28;20398;-75
2023/05/21 03:31:25;;;;;;;1999.90;520.55;;;;;;;9.76;100.00;101689.22;5053579;28;20076;-75
2023/05/21 03:34:03;;;;;;;1999.90;480.35;;;;;;;9.75;100.00;101681.38;5067888;28;20032;-76
2023/05/21 03:36:30;;;;;;;1999.90;549.88;;;;;;;9.81;100.00;101681.69;5072551;28;20036;-77
2023/05/21 03:38:56;;;;;;;1999.90;647.67;;;;;;;9.82;100.00;101674.53;5058694;28;20023;-74
2023/05/21 03:41:21;;;;;;;1999.90;485.80;;;;;;;9.83;100.00;101676.19;5049233;28;20040;-75
2023/05/21 03:43:51;;;;;;;1999.90;388.88;;;;;;;9.87;100.00;101682.97;5056312;28;20028;-76
2023/05/21 03:46:19;;;;;;;1999.90;732.50;;;;;;;9.92;100.00;101670.91;5071735;28;20402;-73
2023/05/21 03:49:06;;;;;;;1999.90;615.20;;;;;;;9.99;100.00;101673.03;5051116;28;20387;-76
2023/05/21 03:51:34;;;;;;;1999.90;760.97;;;;;;;10.02;100.00;101668.28;5083050;28;20386;-73
2023/05/21 03:54:00;;;;;;;1999.90;630.37;;;;;;;10.02;100.00;101662.09;5064808;28;20509;-73
2023/05/21 03:56:25;;;;;;;1999.90;636.92;;;;;;;10.07;100.00;101671.38;5053359;28;20035;-77
2023/05/21 03:58:51;;;;;;;1999.90;572.17;;;;;;;10.10;100.00;101659.59;5047422;28;20050;-75
2023/05/21 04:01:18;;;;;;;;;;;;;;;10.17;100.00;101660.72;5047953;28;20495;-74
2023/05/21 04:03:44;;;;;;;1999.90;678.10;;;;;;;10.20;100.00;101659.59;5047887;28;20286;-74
2023/05/21 04:06:10;;;;;;;1999.90;606.42;;;;;;;10.29;100.00;101658.81;5064098;28;20024;-78
2023/05/21 04:08:37;;;;;;;1999.90;897.72;;;;;;;10.34;100.00;101654.72;5064323;28;20024;-75
2023/05/21 04:11:02;;;;;;;1999.90;718.07;;;;;;;10.42;100.00;101650.53;5049730;28;20036;-73
2023/05/21 04:13:28;;;;;;;1999.90;921.50;;;;;;;10.44;100.00;101651.22;5050612;28;20024;-76
2023/05/21 04:15:53;;;;;;;1999.90;820.60;;;;;;;10.49;100.00;101649.84;5068495;28;20494;-74
2023/05/21 04:18:19;;;;;;;1999.90;732.23;;;;;;;10.57;100.00;101647.31;5051816;28;20024;-74
2023/05/21 04:20:45;;;;;;;;;;;;;;;10.65;100.00;101646.63;5064994;28;20054;-76
2023/05/21 04:23:10;;;;;;;;;;;;;;;10.68;100.00;101635.66;5052233;28;20389;-76
2023/05/21 04:25:37;;;;;;;1993.10;455.57;;;;;;;10.73;100.00;101627.22;5052731;28;19912;-73
2023/05/21 04:28:03;;;;;;;1999.90;470.40;;;;;;;10.77;100.00;101628.63;5065231;28;20024;-74
2023/05/21 04:30:28;;;;;;;1999.90;648.88;;;;;;;10.81;100.00;101627.31;5082298;28;20093;-76
2023/05/21 04:32:54;;;;;;;1999.90;508.50;;;;;;;10.82;100.00;101615.69;5049707;28;20128;-74
2023/05/21 04:35:19;;;;;;;1999.90;709.50;;;;;;;10.90;100.00;101621.13;5068264;28;20016;-75
2023/05/21 04:37:45;;;;;;;1999.90;592.20;;;;;;;10.95;100.00;101613.53;5064132;28;20877;-74
2023/05/21 04:40:16;;;;;;;1999.90;500.33;;;;;;;11.09;100.00;101614.06;5068093;28;20110;-79
2023/05/21 04:42:44;;;;;;;1999.90;584.28;;;;;;;11.21;100.00;101602.19;5068033;28;20439;-75
2023/05/21 04:45:10;;;;;;;1999.90;501.98;;;;;;;11.23;100.00;101588.69;5064401;28;20454;-77
2023/05/21 04:47:38;;;;;;;1999.90;641.67;;;;;;;11.25;100.00;101584.88;5046881;28;20038;-76
2023/05/21 04:50:04;;;;;;;1999.90;817.43;;;;;;;11.46;100.00;101594.53;5064643;28;20025;-73
2023/05/21 04:52:30;;;;;;;1999.90;814.67;;;;;;;11.61;100.00;101588.53;5062318;28;20486;-73
2023/05/21 04:54:57;;;;;;;1999.90;689.83;;;;;;;11.68;100.00;101582.56;5059167;28;20028;-73
2023/05/21 04:57:26;;;;;;;1999.90;770.67;;;;;;;11.82;100.00;101569.56;5067790;28;20410;-74
2023/05/21 04:59:52;;;;;;;1999.90;695.58;;;;;;;11.96;100.00;101564.69;5068472;28;20362;-73
2023/05/21 05:02:18;;;;;;;1999.90;684.55;;;;;;;12.00;100.00;101544.66;5050567;28;20036;-73
2023/05/21 05:04:43;;;;;;;1999.90;667.67;;;;;;;11.89;100.00;101536.84;5068258;28;20103;-74
2023/05/21 05:07:12;;;;;;;1999.90;618.33;;;;;;;11.80;100.00;101539.44;5078813;28;20038;-73
2023/05/21 05:09:37;;;;;;;1999.90;662.47;;;;;;;11.72;100.00;101536.66;5063447;28;20020;-73
2023/05/21 05:12:03;;;;;;;1999.90;652.43;;;;;;;11.73;100.00;101546.38;5068026;28;20501;-76
2023/05/21 05:14:29;;;;;;;1999.90;858.58;;;;;;;11.82;100.00;101555.31;5058903;28;20107;-76
2023/05/21 05:16:58;;;;;;;1999.90;922.33;;;;;;;11.76;100.00;101548.75;5066241;28;20534;-73
2023/05/21 05:19:23;;;;;;;1999.90;858.60;;;;;;;11.80;100.00;101555.50;5060547;28;20324;-73
2023/05/21 05:21:49;;;;;;;1999.90;814.33;;;;;;;11.88;100.00;101561.94;5066292;28;20036;-77
2023/05/21 05:24:15;;;;;;;1999.90;725.30;;;;;;;11.98;100.00;101560.03;5044184;28;20532;-73
2023/05/21 05:26:41;;;;;;;1999.90;596.33;;;;;;;12.07;100.00;101553.78;5062944;28;20036;-75
2023/05/21 05:29:06;;;;;;;1999.90;786.03;;;;;;;12.19;100.00;101552.53;5047917;28;20066;-73
2023/05/21 05:31:32;;;;;;;1999.90;764.57;;;;;;;12.23;100.00;101545.91;5081664;28;20036;-73
2023/05/21 05:33:57;;;;;;;1999.90;663.73;;;;;;;12.37;100.00;101543.66;5050749;28;20034;-78
2023/05/21 05:36:23;;;;;;;1999.90;782.92;;;;;;;12.53;100.00;101548.31;5066776;28;20036;-76
2023/05/21 05:38:48;;;;;;;1999.90;576.97;;;;;;;12.63;100.00;101543.69;5058553;28;20036;-73
2023/05/21 05:41:15;;;;;;;1999.90;669.38;;;;;;;12.88;100.00;101528.63;5065555;28;20020;-78
2023/05/21 05:43:40;;;;;;;1999.90;569.67;;;;;;;13.13;100.00;101521.53;5066916;28;20031;-73
2023/05/21 05:46:06;;;;;;;1999.90;755.27;;;;;;;13.29;100.00;101494.00;5062746;28;20290;-73
2023/05/21 05:48:31;;;;;;;1999.90;548.43;;;;;;;13.38;100.00;101476.94;5066100;28;20081;-74
2023/05/21 05:50:57;;;;;;;1999.90;344.52;;;;;;;13.64;100.00;101455.34;5045643;28;20280;-73
2023/05/21 05:53:24;;;;;;;1999.90;648.30;;;;;;;13.86;100.00;101415.44;5066019;28;20024;-73
2023/05/21 05:55:50;;;;;;;1982.93;204.70;;;;;;;14.25;100.00;101409.41;5062913;28;20040;-73
2023/05/21 05:58:15;;;;;;;1999.90;999.90;;;;;;;14.53;100.00;101380.28;5050549;28;20031;-73
2023/05/21 06:01:18;;;;;;;1891.30;556.72;;;;;;;14.64;100.00;101310.06;5062873;28;20039;-74
2023/05/21 06:03:44;;;;;;;1999.90;999.90;;;;;;;14.59;100.00;101272.16;5065841;28;20028;-74
2023/05/21 06:06:12;;;;;;;1999.90;226.65;;;;;;;14.64;100.00;101259.00;5066178;28;20020;-74
2023/05/21 06:08:39;;;;;;;1999.90;698.27;;;;;;;14.61;100.00;101219.06;5066532;28;20509;-74
2023/05/21 06:11:04;;;;;;;;;;;;;;;14.31;100.00;101267.19;5050621;28;20020;-74
2023/05/21 06:13:30;;;;;;;;;;;;;;;13.99;100.00;101312.94;5061745;28;19985;-73
2023/05/21 06:15:56;;;;;;;1600.63;558.72;;;;;;;14.49;100.00;101357.44;5050197;28;20007;-74
2023/05/21 06:18:21;;;;;;;1999.90;999.90;;;;;;;14.63;100.00;101316.44;5049961;28;20126;-74
2023/05/21 06:20:46;;;;;;;1999.90;999.90;;;;;;;14.70;100.00;101301.31;5061693;28;20023;-73
2023/05/21 06:23:12;;;;;;;1662.80;410.97;;;;;;;14.89;100.00;101300.03;5049071;28;20020;-74
2023/05/21 06:25:39;;;;;;;1999.90;441.60;;;;;;;15.01;100.00;101304.97;5049983;28;20390;-74
2023/05/21 06:28:05;;;;;;;1999.90;343.13;;;;;;;15.06;100.00;101289.16;5065715;28;20039;-74
2023/05/21 06:30:31;;;;;;;1999.90;464.98;;;;;;;15.13;100.00;101311.63;5064727;28;20024;-74
2023/05/21 06:32:57;;;;;;;1999.90;572.83;;;;;;;15.07;100.00;101280.06;5065936;28;20058;-74
2023/05/21 06:35:24;;;;;;;1999.90;514.90;;;;;;;15.29;100.00;101295.38;5049961;28;20048;-74
2023/05/21 06:37:49;;;;;;;1999.90;999.90;;;;;;;15.17;100.00;101281.53;5058651;28;20681;-74
2023/05/21 06:40:15;;;;;;;1999.90;615.00;;;;;;;15.28;100.00;101309.00;5066042;28;20427;-74
2023/05/21 06:42:40;;;;;;;1999.90;346.07;;;;;;;15.51;100.00;101323.28;5066466;28;20040;-74
2023/05/21 06:45:24;;;;;;;1999.90;359.08;;;;;;;15.78;100.00;101331.81;5068665;28;20583;-74
2023/05/21 06:47:53;;;;;;;1999.90;282.95;;;;;;;15.76;100.00;101282.72;5061918;28;20039;-74
2023/05/21 06:50:19;;;;;;;1999.90;741.07;;;;;;;15.86;100.00;101291.38;5046934;28;20012;-74
2023/05/21 06:52:44;;;;;;;1999.90;485.80;;;;;;;16.10;100.00;101292.13;5061728;28;20459;-74
2023/05/21 06:55:10;;;;;;;1999.90;492.83;;;;;;;16.33;100.00;101276.69;5071662;28;20076;-74
2023/05/21 06:57:55;;;;;;;1999.90;999.90;;;;;;;17.54;100.00;101303.94;5061830;28;20101;-74
2023/05/21 07:00:20;;;;;;;1999.90;999.90;;;;;;;18.52;100.00;101083.13;5065648;28;20043;-73
2023/05/21 07:02:46;;;;;;;1999.90;999.90;;;;;;;19.41;100.00;100975.38;5079962;28;20659;-74
2023/05/21 07:05:12;;;;;;;1999.90;999.90;;;;;;;20.18;100.00;100789.16;5045561;28;20433;-74
2023/05/21 07:07:38;;;;;;;1999.90;999.90;;;;;;;20.36;100.00;100586.88;5048985;28;20059;-74
2023/05/21 07:10:04;;;;;;;1999.90;999.90;;;;;;;20.48;100.00;100492.00;5065558;28;20032;-75
2023/05/21 07:12:29;;;;;;;1999.90;791.35;;;;;;;19.46;100.00;100331.22;5065066;28;20134;-75
2023/05/21 07:14:55;;;;;;;1999.90;999.90;;;;;;;19.31;100.00;100528.38;5063512;28;20119;-75
2023/05/21 07:17:20;;;;;;;1999.90;999.90;;;;;;;19.93;100.00;100683.53;5058856;28;20032;-75
2023/05/21 07:19:46;;;;;;;1999.90;653.73;;;;;;;20.29;100.00;100507.53;5064574;28;20092;-75
2023/05/21 07:22:12;;;;;;;1999.90;992.88;;;;;;;20.39;100.00;100445.41;5065229;28;20019;-74
2023/05/21 07:24:37;;;;;;;1999.90;866.60;;;;;;;20.81;100.00;100492.28;5082939;28;20021;-75
2023/05/21 07:27:05;;;;;;;1999.90;999.90;;;;;;;20.66;98.57;100397.81;5064335;28;20016;-75
2023/05/21 07:29:32;;;;;;;1999.90;999.90;;;;;;;20.71;97.46;100385.44;5066322;28;20032;-74
2023/05/21 07:31:58;;;;;;;1999.90;965.22;;;;;;;19.38;98.27;100221.38;5063942;28;20020;-74
2023/05/21 07:34:24;;;;;;;1999.90;999.90;;;;;;;19.79;100.00;100598.88;5082559;28;20444;-74
2023/05/21 07:36:50;;;;;;;1999.90;995.75;;;;;;;19.76;100.00;100504.53;5065209;28;20310;-74
2023/05/21 07:39:15;;;;;;;1999.90;975.80;;;;;;;19.51;100.00;100696.03;5069159;28;20052;-74
2023/05/21 07:41:41;;;;;;;1999.90;955.28;;;;;;;19.17;100.00;100588.09;5069372;28;20063;-74
2023/05/21 07:44:08;;;;;;;1999.90;999.90;;;;;;;19.51;100.00;100701.44;5069527;28;20028;-74
2023/05/21 07:46:37;;;;;;;1999.90;929.58;;;;;;;19.71;100.00;100642.50;5065215;28;20297;-74
2023/05/21 07:49:03;;;;;;;1999.90;999.90;;;;;;;20.13;100.00;100742.91;5068697;28;20122;-74
2023/05/21 07:51:28;;;;;;;1999.90;999.90;;;;;;;20.41;100.00;100728.00;5051735;28;20024;-74
2023/05/21 07:53:54;;;;;;;1999.90;999.90;;;;;;;20.67;100.00;100808.22;5063905;28;20097;-74
2023/05/21 07:56:25;;;;;;;1999.90;999.90;;;;;;;21.11;98.18;100802.63;5068894;28;20031;-74
2023/05/21 07:58:50;;;;;;;1999.90;999.90;;;;;;;21.39;96.27;100739.53;5067755;28;20037;-74
2023/05/21 08:01:16;;;;;;;1999.90;999.90;;;;;;;21.24;93.04;100514.66;5068480;28;20020;-74
2023/05/21 08:03:42;;;;;;;1999.90;999.90;;;;;;;21.01;93.43;100538.06;5052330;28;20032;-74
2023/05/21 08:06:07;;;;;;;1999.90;952.30;;;;;;;19.53;95.93;100463.78;5064131;28;20298;-74
2023/05/21 08:08:32;;;;;;;1999.90;803.00;;;;;;;18.67;100.00;100679.97;5083297;28;20470;-74
2023/05/21 08:10:59;;;;;;;1999.90;696.30;;;;;;;18.74;100.00;101008.00;5067425;28;20028;-74
2023/05/21 08:13:25;;;;;;;1999.90;604.60;;;;;;;19.46;100.00;101127.19;5061479;28;20059;-74
2023/05/21 08:15:51;;;;;;;902.03;410.93;;;;;;;19.67;100.00;101006.91;5068440;28;20340;-74
2023/05/21 08:18:17;;;;;;;1999.90;870.17;;;;;;;19.82;100.00;100957.88;5059896;28;20124;-74
2023/05/21 08:20:44;;;;;;;1667.68;492.30;;;;;;;19.99;100.00;100966.31;5047784;28;20538;-74
2023/05/21 08:23:10;;;;;;;1362.53;462.48;;;;;;;20.18;100.00;101000.59;5060543;28;20032;-74
2023/05/21 08:25:40;;;;;;;1488.90;618.92;;;;;;;20.14;100.00;100919.94;5069000;28;20058;-74
2023/05/21 08:28:06;;;;;;;955.67;452.90;;;;;;;20.42;100.00;100974.53;5064188;28;20047;-74
2023/05/21 08:30:34;;;;;;;1999.90;722.08;;;;;;;19.84;100.00;100711.97;5063642;28;20107;-74
2023/05/21 08:33:01;;;;;;;1999.90;650.55;;;;;;;20.05;100.00;100918.56;5064843;28;20031;-74
2023/05/21 08:35:27;;;;;;;1768.57;563.92;;;;;;;20.49;100.00;101017.88;5057480;28;20036;-74
2023/05/21 08:37:57;;;;;;;1967.40;443.48;;;;;;;19.93;100.00;100835.25;5061683;28;20032;-74
2023/05/21 08:40:29;;;;;;;1999.90;750.22;;;;;;;19.13;100.00;100889.09;5078944;28;20116;-74
2023/05/21 08:42:56;;;;;;;1843.72;513.63;;;;;;;18.72;100.00;101001.97;5066769;28;20115;-74
2023/05/21 08:45:41;;;;;;;1999.90;397.35;;;;;;;19.33;100.00;101100.13;5067650;28;20032;-74
2023/05/21 08:48:10;;;;;;;1999.90;561.53;;;;;;;19.52;100.00;101060.50;5051488;28;20106;-74
2023/05/21 08:50:35;;;;;;;1333.35;404.70;;;;;;;19.74;100.00;101115.28;5063678;28;20107;-74
2023/05/21 08:53:11;;;;;;;1999.90;605.58;;;;;;;19.08;100.00;100938.47;5062042;28;20020;-74
2023/05/21 08:55:37;;;;;;;1999.90;441.83;;;;;;;18.77;100.00;101102.25;5067635;28;20119;-74
2023/05/21 08:58:06;;;;;;;1521.75;244.38;;;;;;;18.99;100.00;101229.25;5047204;28;20047;-74
2023/05/21 09:00:31;;;;;;;1999.90;530.88;;;;;;;19.45;100.00;101224.88;5067509;28;20070;-74
2023/05/21 09:02:59;;;;;;;;;;;;;;;20.00;100.00;101225.44;5067178;28;20028;-74
2023/05/21 09:05:25;;;;;;;1872.07;680.00;;;;;;;20.15;100.00;101198.88;5066619;28;19968;-74
2023/05/21 09:07:59;;;;;;;;;;;;;;;20.73;100.00;101227.00;5055832;28;20035;-74
2023/05/21 09:10:38;;;;;;;1999.90;982.67;;;;;;;21.22;100.00;101116.78;5067128;28;19920;-74
2023/05/21 09:13:06;;;;;;;1999.90;576.38;;;;;;;21.37;100.00;100929.88;5081345;28;20028;-75
2023/05/21 09:15:32;;;;;;;1999.90;925.92;;;;;;;21.18;98.57;100819.66;5062327;28;20058;-74
2023/05/21 09:17:57;;;;;;;1999.90;867.20;;;;;;;21.70;99.25;100958.47;5051051;28;20035;-75
2023/05/21 09:20:52;;;;;;;1999.90;944.95;;;;;;;21.85;93.57;100692.56;5009890;28;20073;-74
2023/05/21 09:23:19;;;;;;;1999.90;960.10;;;;;;;21.80;92.98;100672.63;5066931;28;20081;-74
2023/05/21 09:25:46;;;;;;;1999.90;999.90;;;;;;;22.11;92.74;100750.19;5066040;28;20130;-74
2023/05/21 09:28:18;;;;;;;1999.90;921.92;;;;;;;22.31;90.79;100701.72;5065987;28;20028;-74
2023/05/21 09:30:48;;;;;;;1999.90;995.22;;;;;;;22.16;91.59;100741.34;5084632;28;20040;-74
2023/05/21 09:33:25;;;;;;;1999.90;806.70;;;;;;;22.05;88.74;100504.59;5079394;28;20035;-75
2023/05/21 09:35:50;;;;;;;1999.90;758.60;;;;;;;20.57;92.69;100539.44;5060672;28;20044;-74
2023/05/21 09:38:15;;;;;;;1999.90;894.20;;;;;;;21.62;94.61;100918.91;5066427;28;20012;-74
2023/05/21 09:40:46;;;;;;;1999.90;949.60;;;;;;;21.14;92.10;100636.56;5062343;28;20044;-74
2023/05/21 09:43:14;;;;;;;1999.90;955.00;;;;;;;22.27;92.01;100892.81;5076571;28;20029;-75
2023/05/21 09:45:52;;;;;;;1999.90;913.78;;;;;;;21.87;89.63;100644.25;5050836;28;20041;-74
2023/05/21 09:48:35;;;;;;;1999.90;999.90;;;;;;;21.39;91.52;100724.06;5059757;28;20413;-74
2023/05/21 09:51:16;;;;;;;1999.90;999.90;;;;;;;21.68;91.68;100792.16;5057108;28;20032;-74
2023/05/21 09:53:48;;;;;;;1999.90;824.42;;;;;;;21.35;89.99;100570.81;5082935;28;20040;-75
2023/05/21 09:56:13;;;;;;;1999.90;783.88;;;;;;;20.42;93.27;100637.47;5075854;28;20052;-74
2023/05/21 09:58:39;;;;;;;1999.90;871.22;;;;;;;20.62;97.57;100987.91;5061897;28;20418;-74
2023/05/21 10:01:06;;;;;;;1999.90;892.95;;;;;;;20.71;93.11;100675.69;5065696;28;20126;-74
2023/05/21 10:03:35;;;;;;;1999.90;710.85;;;;;;;20.59;97.53;100963.13;5065851;28;20024;-74
2023/05/21 10:06:02;;;;;;;1999.90;695.58;;;;;;;21.16;96.39;100996.34;5050241;28;20122;-74
2023/05/21 10:08:30;;;;;;;1999.90;890.30;;;;;;;21.28;95.28;100917.66;5081782;28;20020;-75
2023/05/21 10:10:55;;;;;;;1999.90;768.13;;;;;;;21.46;93.77;100876.09;5083568;28;20062;-74
2023/05/21 10:13:22;;;;;;;1999.90;960.83;;;;;;;21.42;93.23;100832.28;5065992;28;20138;-75
2023/05/21 10:15:54;;;;;;;1999.90;923.05;;;;;;;21.91;91.92;100862.84;5062131;28;20399;-75
2023/05/21 10:18:21;;;;;;;1999.90;910.60;;;;;;;22.16;90.56;100815.56;5065296;28;20039;-75
2023/05/21 10:20:46;;;;;;;1999.90;942.38;;;;;;;22.38;89.70;100806.81;5063641;28;20020;-74
2023/05/21 10:23:12;;;;;;;1999.90;999.90;;;;;;;22.46;87.56;100663.09;5065477;28;20036;-74
2023/05/21 10:25:38;;;;;;;1999.90;999.90;;;;;;;22.55;86.46;100606.41;5079513;28;20024;-74
2023/05/21 10:28:05;;;;;;;;;;;;;;;22.42;86.38;100609.44;5050292;28;20035;-74
2023/05/21 10:30:31;;;;;;;1999.90;999.90;;;;;;;22.10;87.61;100664.25;5047775;28;20065;-74
2023/05/21 10:32:58;;;;;;;1999.90;999.90;;;;;;;22.22;87.85;100724.91;5082581;28;20158;-74
2023/05/21 10:35:24;;;;;;;1999.90;994.10;;;;;;;22.66;86.84;100733.38;5065982;28;20039;-75
2023/05/21 10:37:51;;;;;;;1999.90;988.33;;;;;;;21.42;86.41;100408.66;5050017;28;20570;-75
2023/05/21 10:40:17;;;;;;;1999.90;999.90;;;;;;;22.28;86.60;100676.88;5078549;28;20033;-75
2023/05/21 10:43:09;;;;;;;1999.90;999.90;;;;;;;22.57;86.66;100756.63;5079043;28;20117;-75
2023/05/21 10:46:03;;;;;;;1999.90;999.90;;;;;;;22.93;85.99;100732.81;5081101;28;20047;-74
2023/05/21 10:48:59;;;;;;;1999.90;999.90;;;;;;;23.14;83.34;100590.53;5077330;28;20488;-75
2023/05/21 10:51:51;;;;;;;1999.90;661.30;;;;;;;23.24;83.29;100606.19;5081415;28;20036;-74